Time;durP1;ratioP1;P1;durP2;ratioP2;P2;SDS_P1;SDS_P2;PMS_P1;PMS_P2;Temp;Humidity;BMP_temperature;BMP_pressure;BME280_temperature;BME280_humidity;BME280_pressure;Samples;Min_cycle;Max_cycle;Signal;HPM_P1;HPM_P2
2021/10/29 00:02:19;;;;;;;4.51;4.11;;;;;;;19.85;58.77;100336.90;;;;-52
2021/10/29 00:05:19;;;;;;;4.53;4.13;;;;;;;19.85;58.67;100330.39;;;;-52
2021/10/29 00:08:19;;;;;;;4.43;4.09;;;;;;;19.84;58.62;100326.74;;;;-52
2021/10/29 00:11:19;;;;;;;4.41;4.07;;;;;;;19.83;58.67;100320.80;;;;-56
2021/10/29 00:14:19;;;;;;;4.51;4.11;;;;;;;19.82;58.73;100317.80;;;;-56
2021/10/29 00:17:19;;;;;;;4.49;4.09;;;;;;;19.82;58.66;100315.84;;;;-51
2021/10/29 00:20:19;;;;;;;4.30;3.90;;;;;;;19.80;58.69;100318.20;;;;-51
2021/10/29 00:23:19;;;;;;;4.68;4.28;;;;;;;19.79;58.78;100315.41;;;;-52
2021/10/29 00:26:19;;;;;;;4.16;3.77;;;;;;;19.79;58.75;100325.41;;;;-52
2021/10/29 00:29:20;;;;;;;4.39;3.99;;;;;;;19.78;58.76;100327.55;;;;-52
2021/10/29 00:32:19;;;;;;;4.38;3.98;;;;;;;19.77;58.72;100339.55;;;;-51
2021/10/29 00:35:19;;;;;;;3.99;3.69;;;;;;;19.76;58.70;100342.17;;;;-51
2021/10/29 00:38:19;;;;;;;4.18;3.88;;;;;;;19.75;58.71;100347.67;;;;-51
2021/10/29 00:41:19;;;;;;;4.38;3.99;;;;;;;19.74;58.72;100344.77;;;;-51
2021/10/29 00:44:19;;;;;;;4.21;3.81;;;;;;;19.73;58.83;100339.13;;;;-52
2021/10/29 00:47:20;;;;;;;4.21;3.80;;;;;;;19.72;58.77;100347.11;;;;-52
2021/10/29 00:50:19;;;;;;;4.47;4.07;;;;;;;19.72;58.82;100347.28;;;;-52
2021/10/29 00:53:19;;;;;;;4.33;3.93;;;;;;;19.71;58.82;100353.59;;;;-52
2021/10/29 00:56:19;;;;;;;4.05;3.66;;;;;;;19.70;58.82;100352.03;;;;-51
2021/10/29 00:59:20;;;;;;;4.21;3.83;;;;;;;19.69;58.80;100350.47;;;;-52
2021/10/29 01:02:19;;;;;;;4.20;3.81;;;;;;;19.69;58.79;100360.31;;;;-56
2021/10/29 01:05:19;;;;;;;4.01;3.71;;;;;;;19.68;58.79;100369.34;;;;-55
2021/10/29 01:08:19;;;;;;;4.02;3.71;;;;;;;19.67;58.75;100373.58;;;;-55
2021/10/29 01:11:19;;;;;;;3.99;3.59;;;;;;;19.66;58.89;100373.97;;;;-56
2021/10/29 01:14:19;;;;;;;4.16;3.76;;;;;;;19.65;58.82;100364.47;;;;-56
2021/10/29 01:17:19;;;;;;;3.93;3.63;;;;;;;19.65;58.80;100362.98;;;;-55
2021/10/29 01:20:19;;;;;;;3.83;3.53;;;;;;;19.64;58.87;100362.98;;;;-51
2021/10/29 01:23:19;;;;;;;4.23;3.83;;;;;;;19.63;58.77;100365.89;;;;-52
2021/10/29 01:26:19;;;;;;;4.01;3.62;;;;;;;19.62;58.80;100355.83;;;;-52
2021/10/29 01:29:20;;;;;;;3.79;3.49;;;;;;;19.61;58.76;100361.27;;;;-52
2021/10/29 01:32:19;;;;;;;3.90;3.60;;;;;;;19.61;58.92;100362.63;;;;-52
2021/10/29 01:35:19;;;;;;;4.04;3.74;;;;;;;19.60;58.79;100358.66;;;;-51
2021/10/29 01:38:19;;;;;;;4.08;3.73;;;;;;;19.59;58.92;100350.61;;;;-52
2021/10/29 01:41:19;;;;;;;4.03;3.71;;;;;;;19.58;58.86;100349.22;;;;-53
2021/10/29 01:44:19;;;;;;;3.88;3.58;;;;;;;19.58;58.81;100347.10;;;;-51
2021/10/29 01:47:19;;;;;;;3.88;3.58;;;;;;;19.57;58.81;100344.34;;;;-52
2021/10/29 01:50:19;;;;;;;3.91;3.61;;;;;;;19.56;58.82;100344.00;;;;-51
2021/10/29 01:53:19;;;;;;;4.02;3.69;;;;;;;19.56;58.95;100341.97;;;;-51
2021/10/29 01:56:19;;;;;;;3.61;3.31;;;;;;;19.55;58.79;100342.20;;;;-51
2021/10/29 01:59:19;;;;;;;3.81;3.51;;;;;;;19.54;58.79;100339.28;;;;-52
2021/10/29 02:02:19;;;;;;;3.59;3.29;;;;;;;19.54;58.90;100337.98;;;;-56
2021/10/29 02:05:19;;;;;;;3.81;3.48;;;;;;;19.54;58.80;100341.16;;;;-56
2021/10/29 02:08:23;;;;;;;3.85;3.55;;;;;;;19.53;58.85;100342.36;;;;-56
2021/10/29 02:11:19;;;;;;;3.77;3.47;;;;;;;19.51;58.89;100344.23;;;;-52
2021/10/29 02:14:19;;;;;;;3.77;3.47;;;;;;;19.51;58.89;100335.95;;;;-51
2021/10/29 02:17:19;;;;;;;3.73;3.43;;;;;;;19.50;58.88;100336.50;;;;-52
2021/10/29 02:20:19;;;;;;;3.72;3.42;;;;;;;19.50;59.00;100339.59;;;;-52
2021/10/29 02:23:19;;;;;;;3.83;3.53;;;;;;;19.49;58.95;100336.02;;;;-56
2021/10/29 02:26:19;;;;;;;3.89;3.59;;;;;;;19.49;58.95;100338.30;;;;-56
2021/10/29 02:29:19;;;;;;;3.57;3.27;;;;;;;19.48;58.95;100333.89;;;;-55
2021/10/29 02:32:19;;;;;;;3.50;3.20;;;;;;;19.47;59.00;100328.29;;;;-52
2021/10/29 02:35:19;;;;;;;3.59;3.29;;;;;;;19.47;58.99;100327.39;;;;-52
2021/10/29 02:38:19;;;;;;;3.59;3.29;;;;;;;19.46;58.91;100321.39;;;;-52
2021/10/29 02:41:19;;;;;;;3.77;3.47;;;;;;;19.45;59.02;100321.86;;;;-52
2021/10/29 02:44:19;;;;;;;3.48;3.18;;;;;;;19.45;59.08;100318.20;;;;-52
2021/10/29 02:47:19;;;;;;;3.60;3.30;;;;;;;19.44;58.99;100316.83;;;;-51
2021/10/29 02:50:19;;;;;;;3.61;3.31;;;;;;;19.43;58.86;100313.56;;;;-51
2021/10/29 02:53:19;;;;;;;3.35;3.09;;;;;;;19.44;58.88;100315.27;;;;-52
2021/10/29 02:56:19;;;;;;;3.56;3.26;;;;;;;19.43;59.03;100313.65;;;;-51
2021/10/29 02:59:19;;;;;;;3.59;3.29;;;;;;;19.42;58.96;100310.86;;;;-51
2021/10/29 03:02:19;;;;;;;3.59;3.29;;;;;;;19.41;58.88;100298.59;;;;-51
2021/10/29 03:05:19;;;;;;;3.55;3.25;;;;;;;19.40;59.06;100298.34;;;;-51
2021/10/29 03:08:19;;;;;;;3.59;3.29;;;;;;;19.40;58.91;100297.15;;;;-51
2021/10/29 03:11:19;;;;;;;3.60;3.30;;;;;;;19.40;58.96;100290.16;;;;-52
2021/10/29 03:14:19;;;;;;;3.55;3.25;;;;;;;19.39;59.00;100281.69;;;;-51
2021/10/29 03:17:19;;;;;;;3.51;3.21;;;;;;;19.38;59.12;100275.92;;;;-55
2021/10/29 03:20:19;;;;;;;3.59;3.29;;;;;;;19.37;58.94;100272.25;;;;-56
2021/10/29 03:23:19;;;;;;;3.55;3.25;;;;;;;19.37;58.92;100274.69;;;;-55
2021/10/29 03:26:19;;;;;;;3.53;3.23;;;;;;;19.37;59.03;100279.81;;;;-52
2021/10/29 03:29:19;;;;;;;3.39;3.09;;;;;;;19.37;58.98;100289.16;;;;-51
2021/10/29 03:32:21;;;;;;;3.36;3.06;;;;;;;19.36;59.09;100294.53;;;;-56
2021/10/29 03:35:19;;;;;;;3.43;3.18;;;;;;;19.35;58.94;100295.49;;;;-56
2021/10/29 03:38:46;;;;;;;3.61;3.31;;;;;;;19.34;59.08;100299.23;;;;-56
2021/10/29 03:41:21;;;;;;;3.35;3.05;;;;;;;19.34;59.01;100299.28;;;;-51
2021/10/29 03:44:24;;;;;;;3.49;3.19;;;;;;;19.33;59.03;100297.83;;;;-52
2021/10/29 03:47:19;;;;;;;3.52;3.22;;;;;;;19.32;58.86;100302.20;;;;-52
2021/10/29 03:50:22;;;;;;;3.42;3.12;;;;;;;19.32;59.04;100303.28;;;;-51
2021/10/29 03:53:31;;;;;;;3.18;2.98;;;;;;;19.31;59.03;100303.99;;;;-56
2021/10/29 03:56:21;;;;;;;3.34;3.04;;;;;;;19.31;58.94;100299.13;;;;-56
2021/10/29 03:59:19;;;;;;;3.49;3.19;;;;;;;19.30;59.04;100296.69;;;;-56
2021/10/29 04:02:19;;;;;;;3.21;2.96;;;;;;;19.29;58.90;100285.86;;;;-56
2021/10/29 04:05:19;;;;;;;3.43;3.13;;;;;;;19.28;59.05;100288.72;;;;-51
2021/10/29 04:08:19;;;;;;;3.40;3.11;;;;;;;19.28;59.04;100286.61;;;;-52
2021/10/29 04:11:22;;;;;;;3.09;2.88;;;;;;;19.27;59.11;100288.30;;;;-52
2021/10/29 04:14:22;;;;;;;3.57;3.27;;;;;;;19.27;59.04;100296.02;;;;-52
2021/10/29 04:17:19;;;;;;;3.21;2.98;;;;;;;19.27;59.04;100301.30;;;;-55
2021/10/29 04:20:19;;;;;;;3.11;2.91;;;;;;;19.26;59.08;100299.73;;;;-52
2021/10/29 04:23:19;;;;;;;3.47;3.17;;;;;;;19.26;58.95;100303.83;;;;-56
2021/10/29 04:26:19;;;;;;;3.03;2.82;;;;;;;19.25;59.00;100299.91;;;;-52
2021/10/29 04:29:25;;;;;;;3.29;2.98;;;;;;;19.25;59.02;100302.34;;;;-51
2021/10/29 04:32:19;;;;;;;3.15;2.87;;;;;;;19.24;59.03;100296.17;;;;-51
2021/10/29 04:35:19;;;;;;;3.20;2.95;;;;;;;19.25;59.03;100298.94;;;;-52
2021/10/29 04:38:19;;;;;;;3.11;2.86;;;;;;;19.24;59.02;100303.00;;;;-51
2021/10/29 04:41:19;;;;;;;3.27;2.97;;;;;;;19.24;59.06;100294.07;;;;-51
2021/10/29 04:44:19;;;;;;;3.06;2.85;;;;;;;19.23;58.97;100295.18;;;;-52
2021/10/29 04:47:19;;;;;;;2.99;2.79;;;;;;;19.24;59.04;100295.94;;;;-51
2021/10/29 04:50:19;;;;;;;3.03;2.83;;;;;;;19.24;59.04;100293.66;;;;-51
2021/10/29 04:53:19;;;;;;;2.98;2.78;;;;;;;19.25;59.08;100291.62;;;;-52
2021/10/29 04:56:19;;;;;;;3.01;2.79;;;;;;;19.26;59.14;100285.46;;;;-51
2021/10/29 04:59:19;;;;;;;3.21;2.91;;;;;;;19.27;59.10;100287.23;;;;-51
2021/10/29 05:02:19;;;;;;;3.03;2.83;;;;;;;19.29;59.20;100285.30;;;;-51
2021/10/29 05:05:19;;;;;;;2.89;2.69;;;;;;;19.30;59.26;100292.77;;;;-51
2021/10/29 05:08:19;;;;;;;2.86;2.66;;;;;;;19.33;59.11;100290.77;;;;-55
2021/10/29 05:11:19;;;;;;;2.75;2.55;;;;;;;19.34;59.22;100289.64;;;;-55
2021/10/29 05:14:19;;;;;;;2.87;2.67;;;;;;;19.35;59.28;100284.84;;;;-56
2021/10/29 05:17:19;;;;;;;2.71;2.51;;;;;;;19.37;59.27;100275.27;;;;-55
2021/10/29 05:20:19;;;;;;;7.02;5.37;;;;;;;19.23;56.19;100279.74;;;;-56
2021/10/29 05:23:19;;;;;;;7.99;7.07;;;;;;;18.97;54.00;100287.67;;;;-56
2021/10/29 05:26:19;;;;;;;9.22;8.29;;;;;;;18.83;53.17;100286.28;;;;-55
2021/10/29 05:29:19;;;;;;;9.50;8.41;;;;;;;18.67;52.76;100274.13;;;;-50
2021/10/29 05:32:19;;;;;;;12.44;8.87;;;;;;;18.54;52.57;100266.75;;;;-51
2021/10/29 05:35:19;;;;;;;9.75;8.75;;;;;;;18.44;52.25;100265.94;;;;-57
2021/10/29 05:38:19;;;;;;;9.73;8.12;;;;;;;18.55;53.32;100262.30;;;;-52
2021/10/29 05:41:19;;;;;;;7.89;7.09;;;;;;;18.67;54.30;100259.92;;;;-53
2021/10/29 05:44:19;;;;;;;7.05;6.25;;;;;;;18.75;54.34;100258.84;;;;-49
2021/10/29 05:47:19;;;;;;;6.68;5.82;;;;;;;18.83;54.94;100265.02;;;;-50
2021/10/29 05:50:19;;;;;;;6.55;5.55;;;;;;;18.87;55.46;100258.86;;;;-47
2021/10/29 05:53:34;;;;;;;5.86;5.24;;;;;;;18.91;55.78;100260.52;;;;-53
2021/10/29 05:56:21;;;;;;;5.05;4.55;;;;;;;18.93;56.00;100262.55;;;;-52
2021/10/29 05:59:19;;;;;;;4.81;4.35;;;;;;;18.96;56.01;100259.88;;;;-49
2021/10/29 06:02:19;;;;;;;4.44;4.04;;;;;;;18.99;56.18;100259.83;;;;-49
2021/10/29 06:05:19;;;;;;;4.47;4.07;;;;;;;19.01;56.37;100251.64;;;;-49
2021/10/29 06:08:19;;;;;;;4.33;3.93;;;;;;;19.01;56.45;100253.59;;;;-49
2021/10/29 06:11:19;;;;;;;4.13;3.73;;;;;;;19.03;56.55;100251.89;;;;-49
2021/10/29 06:14:19;;;;;;;4.57;3.37;;;;;;;19.04;56.61;100249.86;;;;-49
2021/10/29 06:17:19;;;;;;;3.52;3.22;;;;;;;19.05;56.72;100250.01;;;;-49
2021/10/29 06:20:20;;;;;;;3.51;3.21;;;;;;;19.06;56.70;100251.16;;;;-49
2021/10/29 06:23:25;;;;;;;3.26;2.96;;;;;;;19.06;56.81;100242.88;;;;-47
2021/10/29 06:26:24;;;;;;;3.32;3.02;;;;;;;19.07;56.83;100237.92;;;;-52
2021/10/29 06:29:19;;;;;;;3.18;2.88;;;;;;;19.07;56.93;100232.80;;;;-52
2021/10/29 06:32:19;;;;;;;3.29;2.91;;;;;;;19.07;56.95;100233.77;;;;-53
2021/10/29 06:35:19;;;;;;;3.24;2.94;;;;;;;19.07;57.01;100234.94;;;;-52
2021/10/29 06:38:19;;;;;;;2.96;2.71;;;;;;;19.07;57.03;100233.94;;;;-52
2021/10/29 06:41:19;;;;;;;3.02;2.72;;;;;;;19.08;57.11;100236.31;;;;-52
2021/10/29 06:44:26;;;;;;;2.91;2.71;;;;;;;19.08;57.18;100241.59;;;;-53
2021/10/29 06:47:42;;;;;;;2.86;2.66;;;;;;;19.07;57.20;100240.55;;;;-49
2021/10/29 06:59:25;;;;;;;2.69;2.49;;;;;;;19.08;57.41;100254.59;;;;-50
2021/10/29 07:02:43;;;;;;;2.70;2.50;;;;;;;19.08;57.33;100254.99;;;;-49
2021/10/29 07:41:19;;;;;;;2.76;2.56;;;;;;;19.05;57.74;100250.20;;;;-47
2021/10/29 07:44:25;;;;;;;2.53;2.33;;;;;;;19.05;57.67;100249.20;;;;-50
2021/10/29 07:47:19;;;;;;;2.76;2.56;;;;;;;19.04;57.66;100245.95;;;;-46
2021/10/29 07:50:19;;;;;;;2.60;2.40;;;;;;;19.04;57.81;100254.81;;;;-53
2021/10/29 07:53:19;;;;;;;2.61;2.41;;;;;;;19.04;57.72;100263.33;;;;-59
2021/10/29 07:56:19;;;;;;;2.67;2.47;;;;;;;19.03;57.77;100261.88;;;;-49
2021/10/29 07:59:19;;;;;;;2.65;2.45;;;;;;;19.04;57.88;100263.09;;;;-59
2021/10/29 08:02:19;;;;;;;2.47;2.27;;;;;;;19.03;57.80;100257.98;;;;-59
2021/10/29 08:05:19;;;;;;;2.47;2.27;;;;;;;19.02;57.77;100258.29;;;;-47
2021/10/29 08:08:19;;;;;;;2.41;2.21;;;;;;;19.02;57.78;100265.36;;;;-50
2021/10/29 08:11:19;;;;;;;2.58;2.37;;;;;;;19.02;57.88;100265.44;;;;-52
2021/10/29 08:14:19;;;;;;;2.62;2.42;;;;;;;19.02;57.91;100273.23;;;;-52
2021/10/29 08:17:19;;;;;;;2.72;2.52;;;;;;;19.01;57.90;100270.80;;;;-52
2021/10/29 08:20:21;;;;;;;2.40;2.20;;;;;;;19.02;57.93;100280.38;;;;-52
2021/10/29 08:23:19;;;;;;;2.46;2.26;;;;;;;19.01;57.99;100283.23;;;;-47
2021/10/29 08:26:19;;;;;;;2.50;2.30;;;;;;;19.01;57.94;100281.05;;;;-47
2021/10/29 08:29:20;;;;;;;2.60;2.40;;;;;;;19.02;57.97;100278.35;;;;-52
2021/10/29 08:32:19;;;;;;;2.33;2.13;;;;;;;19.00;57.96;100280.36;;;;-52
2021/10/29 08:35:19;;;;;;;2.60;2.40;;;;;;;18.98;58.03;100279.22;;;;-49
2021/10/29 08:38:21;;;;;;;2.53;2.33;;;;;;;19.01;58.06;100283.56;;;;-49
2021/10/29 08:41:19;;;;;;;4.57;2.44;;;;;;;19.01;58.21;100280.39;;;;-48
2021/10/29 08:44:19;;;;;;;2.55;2.33;;;;;;;19.00;58.45;100282.08;;;;-49
2021/10/29 08:47:21;;;;;;;3.28;2.25;;;;;;;19.02;58.66;100281.67;;;;-54
2021/10/29 08:50:19;;;;;;;3.97;2.49;;;;;;;19.05;58.67;100281.20;;;;-60
2021/10/29 08:53:19;;;;;;;12.31;2.79;;;;;;;19.09;58.62;100278.54;;;;-48
2021/10/29 08:56:19;;;;;;;4.89;2.38;;;;;;;19.08;58.62;100272.70;;;;-51
2021/10/29 08:59:20;;;;;;;4.02;2.40;;;;;;;19.09;58.54;100267.20;;;;-60
2021/10/29 09:02:22;;;;;;;4.93;2.49;;;;;;;19.11;58.47;100264.50;;;;-48
2021/10/29 09:05:23;;;;;;;11.65;2.52;;;;;;;19.13;58.46;100258.17;;;;-48
2021/10/29 09:08:26;;;;;;;3.74;2.28;;;;;;;19.17;58.24;100268.34;;;;-52
2021/10/29 09:11:35;;;;;;;3.49;2.33;;;;;;;19.20;58.27;100270.97;;;;-53
2021/10/29 09:32:19;;;;;;;3.91;2.07;;;;;;;19.48;58.76;100251.89;;;;-46
2021/10/29 09:35:19;;;;;;;3.01;2.17;;;;;;;19.54;58.79;100255.08;;;;-46
2021/10/29 09:38:19;;;;;;;4.61;2.48;;;;;;;19.59;58.88;100248.44;;;;-50
2021/10/29 09:41:19;;;;;;;2.41;2.11;;;;;;;19.64;59.08;100245.84;;;;-50
2021/10/29 09:44:19;;;;;;;2.83;2.03;;;;;;;19.69;59.08;100245.86;;;;-50
2021/10/29 09:47:22;;;;;;;2.31;1.91;;;;;;;19.74;59.22;100239.06;;;;-57
2021/10/29 09:50:27;;;;;;;4.76;2.52;;;;;;;19.79;59.16;100237.11;;;;-46
2021/10/29 09:53:36;;;;;;;3.07;2.08;;;;;;;19.82;59.25;100232.41;;;;-60
2021/10/29 09:56:22;;;;;;;3.67;2.04;;;;;;;19.85;59.00;100236.63;;;;-52
2021/10/29 09:59:19;;;;;;;2.20;1.97;;;;;;;19.89;59.06;100232.66;;;;-55
2021/10/29 10:02:20;;;;;;;2.31;2.10;;;;;;;19.92;58.97;100232.89;;;;-49
2021/10/29 10:05:22;;;;;;;2.42;1.99;;;;;;;19.94;58.87;100237.53;;;;-48
2021/10/29 10:08:19;;;;;;;2.46;1.98;;;;;;;19.98;59.20;100234.77;;;;-50
2021/10/29 10:11:34;;;;;;;2.67;1.89;;;;;;;20.01;59.26;100225.27;;;;-46
2021/10/29 10:14:19;;;;;;;4.88;2.25;;;;;;;20.04;58.98;100220.13;;;;-47
2021/10/29 10:17:19;;;;;;;3.43;2.04;;;;;;;20.06;58.55;100215.17;;;;-61
2021/10/29 10:20:19;;;;;;;2.41;2.05;;;;;;;20.06;58.51;100211.02;;;;-61
2021/10/29 10:23:21;;;;;;;2.69;2.11;;;;;;;20.08;58.47;100207.84;;;;-47
2021/10/29 10:26:29;;;;;;;2.26;1.86;;;;;;;20.09;58.45;100208.27;;;;-51
2021/10/29 10:29:29;;;;;;;2.98;1.93;;;;;;;20.12;58.42;100210.46;;;;-49
2021/10/29 10:41:55;;;;;;;1.96;1.84;;;;;;;20.16;58.30;100187.42;;;;-50
2021/10/29 10:44:31;;;;;;;2.20;1.95;;;;;;;20.16;58.30;100183.27;;;;-50
2021/10/29 10:47:22;;;;;;;2.11;1.91;;;;;;;20.18;58.30;100183.94;;;;-50
2021/10/29 10:50:22;;;;;;;3.16;1.90;;;;;;;20.19;58.30;100174.31;;;;-60
2021/10/29 10:53:21;;;;;;;1.90;1.80;;;;;;;20.19;58.27;100171.08;;;;-61
2021/10/29 10:56:34;;;;;;;2.03;1.85;;;;;;;20.21;58.25;100171.63;;;;-60
2021/10/29 10:59:27;;;;;;;2.39;2.01;;;;;;;20.22;58.27;100170.50;;;;-60
2021/10/29 11:02:54;;;;;;;2.44;1.86;;;;;;;20.23;58.27;100163.17;;;;-60
2021/10/29 11:05:32;;;;;;;2.13;1.90;;;;;;;20.23;58.21;100148.19;;;;-61
2021/10/29 11:11:19;;;;;;;2.15;1.90;;;;;;;20.26;58.23;100141.86;;;;-47
2021/10/29 11:14:19;;;;;;;2.00;1.80;;;;;;;20.26;58.19;100141.94;;;;-47
2021/10/29 11:17:19;;;;;;;4.59;2.05;;;;;;;20.29;58.54;100142.23;;;;-46
2021/10/29 11:20:19;;;;;;;3.64;1.88;;;;;;;20.32;58.77;100136.48;;;;-60
2021/10/29 11:23:20;;;;;;;2.35;2.03;;;;;;;20.34;58.66;100129.56;;;;-47
2021/10/29 11:26:25;;;;;;;4.99;2.47;;;;;;;20.35;58.76;100120.34;;;;-48
2021/10/29 11:29:22;;;;;;;3.98;2.37;;;;;;;20.38;58.75;100119.28;;;;-45
2021/10/29 11:38:19;;;;;;;2.74;1.97;;;;;;;20.45;59.03;100095.91;;;;-51
2021/10/29 11:41:19;;;;;;;2.47;1.95;;;;;;;20.47;58.92;100099.80;;;;-50
2021/10/29 11:44:19;;;;;;;3.13;1.90;;;;;;;20.49;58.87;100099.38;;;;-46
2021/10/29 11:47:19;;;;;;;2.10;1.91;;;;;;;20.50;59.08;100101.41;;;;-45
2021/10/29 11:50:19;;;;;;;2.01;1.83;;;;;;;20.51;59.10;100093.19;;;;-49
2021/10/29 11:53:19;;;;;;;2.30;1.90;;;;;;;20.52;58.97;100087.91;;;;-43
2021/10/29 11:56:28;;;;;;;2.94;2.00;;;;;;;20.54;58.90;100082.99;;;;-48
2021/10/29 12:08:19;;;;;;;2.60;1.88;;;;;;;20.61;59.17;100074.95;;;;-49
2021/10/29 12:11:19;;;;;;;2.24;1.93;;;;;;;20.60;58.92;100068.75;;;;-49
2021/10/29 12:14:20;;;;;;;2.05;1.89;;;;;;;20.63;58.88;100063.46;;;;-50
2021/10/29 12:17:21;;;;;;;3.52;1.91;;;;;;;20.65;59.13;100065.98;;;;-49
2021/10/29 12:20:21;;;;;;;2.12;1.92;;;;;;;20.67;58.92;100064.89;;;;-50
2021/10/29 12:23:21;;;;;;;2.30;1.92;;;;;;;20.67;58.92;100064.00;;;;-53
2021/10/29 12:26:19;;;;;;;2.19;1.90;;;;;;;20.69;59.11;100053.47;;;;-51
2021/10/29 12:29:19;;;;;;;2.23;1.90;;;;;;;20.69;59.05;100047.39;;;;-53
2021/10/29 12:32:37;;;;;;;2.11;1.89;;;;;;;20.71;59.27;100041.73;;;;-50
2021/10/29 12:54:34;;;;;;;3.92;2.14;;;;;;;20.78;58.96;99996.43;;;;-50
2021/10/29 13:01:29;;;;;;;6.39;2.27;;;;;;;20.79;58.73;99989.16;;;;-50
2021/10/29 13:04:33;;;;;;;1.93;1.77;;;;;;;20.80;59.24;99982.42;;;;-51
2021/10/29 13:07:19;;;;;;;2.21;1.89;;;;;;;20.81;59.26;99980.84;;;;-46
2021/10/29 13:10:19;;;;;;;2.26;1.90;;;;;;;20.82;59.33;99975.48;;;;-50
2021/10/29 13:13:22;;;;;;;2.88;1.88;;;;;;;20.84;59.59;99970.10;;;;-57
2021/10/29 13:16:19;;;;;;;2.95;2.03;;;;;;;20.84;59.92;99965.85;;;;-56
2021/10/29 13:19:32;;;;;;;2.17;1.83;;;;;;;20.86;59.66;99963.97;;;;-57
2021/10/29 13:22:57;;;;;;;2.09;1.89;;;;;;;20.87;59.42;99955.41;;;;-52
2021/10/29 13:34:19;;;;;;;2.16;1.93;;;;;;;20.89;59.99;99951.06;;;;-49
2021/10/29 13:34:38;;;;;;;2.10;1.92;;;;;;;20.92;60.20;99951.39;;;;-54
2021/10/29 13:37:31;;;;;;;2.90;1.85;;;;;;;20.92;60.44;99944.87;;;;-56
2021/10/29 13:50:37;;;;;;;2.49;1.93;;;;;;;20.90;59.14;99943.91;;;;-53
2021/10/29 13:53:34;;;;;;;2.05;1.79;;;;;;;20.89;59.10;99945.11;;;;-47
2021/10/29 13:56:25;;;;;;;2.15;1.94;;;;;;;20.89;59.00;99935.28;;;;-47
2021/10/29 13:59:40;;;;;;;2.43;1.85;;;;;;;20.88;58.95;99935.46;;;;-46
2021/10/29 14:02:41;;;;;;;2.69;1.91;;;;;;;20.87;58.79;99932.84;;;;-49
2021/10/29 14:29:21;;;;;;;6.81;2.29;;;;;;;20.82;58.08;99929.22;;;;-50
2021/10/29 14:32:23;;;;;;;3.98;2.02;;;;;;;20.82;58.17;99926.13;;;;-51
2021/10/29 14:35:23;;;;;;;2.12;1.91;;;;;;;20.82;58.24;99922.55;;;;-51
2021/10/29 14:38:26;;;;;;;2.94;1.97;;;;;;;20.82;58.25;99917.75;;;;-58
2021/10/29 14:41:24;;;;;;;7.94;2.30;;;;;;;20.83;58.33;99913.98;;;;-59
2021/10/29 14:44:22;;;;;;;3.24;2.21;;;;;;;20.83;58.57;99913.56;;;;-50
2021/10/29 14:47:29;;;;;;;2.34;1.90;;;;;;;20.84;58.71;99911.88;;;;-58
2021/10/29 14:50:43;;;;;;;4.92;2.45;;;;;;;20.84;58.86;99911.61;;;;-47
2021/10/29 15:04:47;;;;;;;8.73;2.52;;;;;;;20.88;58.30;99894.98;;;;-58
2021/10/29 15:14:41;;;;;;;6.87;2.36;;;;;;;20.89;58.42;99888.60;;;;-60
2021/10/29 15:16:45;;;;;;;4.23;2.28;;;;;;;20.90;58.81;99891.78;;;;-48
2021/10/29 15:25:31;;;;;;;5.95;2.67;;;;;;;20.89;58.38;99900.16;;;;-51
2021/10/29 15:28:31;;;;;;;8.35;2.60;;;;;;;20.88;57.89;99895.63;;;;-53
2021/10/29 15:31:33;;;;;;;4.13;2.39;;;;;;;20.88;58.25;99892.84;;;;-48
2021/10/29 15:41:36;;;;;;;6.03;2.16;;;;;;;20.91;58.59;99878.41;;;;-50
2021/10/29 15:44:23;;;;;;;3.15;2.20;;;;;;;20.92;58.61;99874.72;;;;-49
2021/10/29 15:47:31;;;;;;;4.50;2.05;;;;;;;20.92;58.55;99877.75;;;;-59
2021/10/29 15:50:19;;;;;;;4.35;2.09;;;;;;;20.93;58.61;99875.87;;;;-50
2021/10/29 15:53:19;;;;;;;2.47;2.03;;;;;;;20.94;58.63;99873.08;;;;-52
2021/10/29 15:56:27;;;;;;;3.50;2.01;;;;;;;20.94;58.65;99869.75;;;;-53
2021/10/29 15:59:31;;;;;;;2.83;2.03;;;;;;;20.95;58.68;99856.61;;;;-48
2021/10/29 16:02:31;;;;;;;3.56;2.11;;;;;;;20.96;58.74;99862.48;;;;-53
2021/10/29 16:17:19;;;;;;;4.77;2.23;;;;;;;20.99;58.77;99862.37;;;;-53
2021/10/29 16:20:19;;;;;;;2.67;2.21;;;;;;;20.96;58.65;99860.20;;;;-48
2021/10/29 16:23:25;;;;;;;2.47;2.07;;;;;;;20.94;58.33;99859.09;;;;-50
2021/10/29 16:26:21;;;;;;;3.02;2.26;;;;;;;20.94;58.16;99859.65;;;;-52
2021/10/29 16:29:22;;;;;;;4.29;2.29;;;;;;;20.94;57.99;99857.70;;;;-55
2021/10/29 16:32:25;;;;;;;4.54;2.24;;;;;;;20.94;57.83;99859.39;;;;-50
2021/10/29 16:35:19;;;;;;;5.85;2.53;;;;;;;20.93;57.70;99859.74;;;;-51
2021/10/29 16:38:19;;;;;;;3.60;2.41;;;;;;;20.92;57.57;99860.16;;;;-51
2021/10/29 16:41:19;;;;;;;5.61;2.40;;;;;;;20.92;57.62;99851.61;;;;-47
2021/10/29 16:44:19;;;;;;;3.41;2.26;;;;;;;20.92;57.40;99849.56;;;;-53
2021/10/29 16:47:19;;;;;;;4.05;2.30;;;;;;;20.92;57.57;99851.86;;;;-51
2021/10/29 16:50:20;;;;;;;3.54;2.30;;;;;;;20.92;57.54;99852.02;;;;-51
2021/10/29 16:53:19;;;;;;;3.64;2.33;;;;;;;20.92;57.47;99851.05;;;;-52
2021/10/29 16:56:19;;;;;;;3.11;2.27;;;;;;;20.92;57.56;99853.81;;;;-53
2021/10/29 16:59:19;;;;;;;5.83;2.61;;;;;;;20.92;57.41;99853.56;;;;-50
2021/10/29 17:02:21;;;;;;;3.04;2.28;;;;;;;20.92;57.48;99862.67;;;;-46
2021/10/29 17:05:19;;;;;;;2.99;2.53;;;;;;;20.92;57.47;99861.55;;;;-45
2021/10/29 17:08:19;;;;;;;2.98;2.39;;;;;;;20.93;57.38;99865.93;;;;-56
2021/10/29 17:11:19;;;;;;;3.21;2.33;;;;;;;20.92;57.35;99858.53;;;;-51
2021/10/29 17:14:19;;;;;;;3.66;2.51;;;;;;;20.92;57.48;99861.96;;;;-57
2021/10/29 17:17:19;;;;;;;4.93;2.40;;;;;;;20.94;57.39;99864.45;;;;-60
2021/10/29 17:20:19;;;;;;;3.12;2.23;;;;;;;20.95;57.36;99862.81;;;;-59
2021/10/29 17:23:19;;;;;;;4.05;2.25;;;;;;;20.95;57.48;99863.14;;;;-59
2021/10/29 17:26:19;;;;;;;2.75;2.32;;;;;;;20.95;57.56;99863.55;;;;-59
2021/10/29 17:29:21;;;;;;;3.95;2.22;;;;;;;20.95;57.57;99870.79;;;;-59
2021/10/29 17:32:19;;;;;;;3.24;2.30;;;;;;;20.95;57.61;99877.80;;;;-59
2021/10/29 17:35:19;;;;;;;3.22;2.30;;;;;;;20.95;57.64;99882.44;;;;-59
2021/10/29 17:38:19;;;;;;;4.21;2.19;;;;;;;20.94;57.67;99890.60;;;;-59
2021/10/29 17:41:19;;;;;;;2.83;2.20;;;;;;;20.94;57.71;99894.44;;;;-59
2021/10/29 17:44:19;;;;;;;3.23;2.20;;;;;;;20.94;57.78;99899.90;;;;-59
2021/10/29 17:47:19;;;;;;;2.46;2.21;;;;;;;20.94;57.77;99905.92;;;;-59
2021/10/29 17:50:19;;;;;;;3.81;2.09;;;;;;;20.94;57.77;99904.45;;;;-60
2021/10/29 17:53:19;;;;;;;2.76;2.03;;;;;;;20.94;57.84;99907.70;;;;-49
2021/10/29 17:56:19;;;;;;;2.51;2.14;;;;;;;20.95;57.83;99907.63;;;;-48
2021/10/29 17:59:19;;;;;;;2.43;2.13;;;;;;;20.93;57.86;99901.92;;;;-48
2021/10/29 18:02:22;;;;;;;2.87;2.21;;;;;;;20.93;57.86;99900.20;;;;-59
2021/10/29 18:05:20;;;;;;;2.35;2.12;;;;;;;20.93;57.88;99898.50;;;;-59
2021/10/29 18:08:23;;;;;;;2.47;2.05;;;;;;;20.93;57.87;99895.82;;;;-50
2021/10/29 18:11:19;;;;;;;2.37;2.08;;;;;;;20.93;57.92;99893.62;;;;-50
2021/10/29 18:14:19;;;;;;;2.34;2.06;;;;;;;20.93;57.92;99889.45;;;;-50
2021/10/29 18:17:19;;;;;;;2.41;2.05;;;;;;;20.92;57.96;99890.62;;;;-50
2021/10/29 18:20:19;;;;;;;2.41;2.08;;;;;;;20.93;57.96;99893.79;;;;-48
2021/10/29 18:23:18;;;;;;;3.50;2.05;;;;;;;20.92;57.96;99891.20;;;;-50
2021/10/29 18:26:19;;;;;;;3.21;2.29;;;;;;;20.93;58.00;99897.21;;;;-55
2021/10/29 18:29:19;;;;;;;2.21;2.01;;;;;;;20.92;57.99;99899.83;;;;-56
2021/10/29 18:32:19;;;;;;;2.02;1.86;;;;;;;20.92;58.01;99905.12;;;;-56
2021/10/29 18:35:19;;;;;;;2.36;2.13;;;;;;;20.92;58.01;99900.73;;;;-59
2021/10/29 18:38:19;;;;;;;2.30;2.10;;;;;;;20.91;58.06;99893.87;;;;-50
2021/10/29 18:41:19;;;;;;;2.16;1.90;;;;;;;20.92;58.02;99894.59;;;;-50
2021/10/29 18:44:19;;;;;;;3.02;2.09;;;;;;;20.91;58.13;99885.66;;;;-48
2021/10/29 18:47:19;;;;;;;3.79;2.24;;;;;;;20.92;58.39;99885.09;;;;-52
2021/10/29 18:50:19;;;;;;;10.39;2.26;;;;;;;20.92;58.56;99885.74;;;;-52
2021/10/29 18:53:19;;;;;;;7.77;2.64;;;;;;;20.91;57.75;99884.03;;;;-50
2021/10/29 18:56:19;;;;;;;7.79;2.33;;;;;;;20.89;58.10;99886.39;;;;-52
2021/10/29 18:59:19;;;;;;;3.49;2.40;;;;;;;20.90;58.28;99893.81;;;;-51
2021/10/29 19:02:21;;;;;;;5.53;2.29;;;;;;;20.90;58.31;99899.27;;;;-48
2021/10/29 19:05:19;;;;;;;5.71;2.45;;;;;;;20.91;58.19;99904.14;;;;-49
2021/10/29 19:08:19;;;;;;;3.81;2.22;;;;;;;20.90;58.25;99907.41;;;;-49
2021/10/29 19:11:21;;;;;;;7.78;2.51;;;;;;;20.90;58.22;99910.20;;;;-49
2021/10/29 19:14:22;;;;;;;6.77;2.49;;;;;;;20.89;58.27;99910.58;;;;-49
2021/10/29 19:17:19;;;;;;;4.32;2.14;;;;;;;20.89;58.27;99916.69;;;;-52
2021/10/29 19:20:19;;;;;;;3.41;2.34;;;;;;;20.89;58.29;99925.34;;;;-47
2021/10/29 19:23:19;;;;;;;2.77;2.40;;;;;;;20.88;58.42;99922.50;;;;-50
2021/10/29 19:26:19;;;;;;;4.22;2.37;;;;;;;20.87;58.43;99926.16;;;;-48
2021/10/29 19:29:19;;;;;;;4.07;2.23;;;;;;;20.87;58.41;99932.27;;;;-50
2021/10/29 19:32:20;;;;;;;4.05;2.32;;;;;;;20.86;58.40;99941.42;;;;-61
2021/10/29 19:35:19;;;;;;;4.01;2.42;;;;;;;20.85;58.44;99949.63;;;;-47
2021/10/29 19:38:22;;;;;;;5.60;2.75;;;;;;;20.84;58.52;99951.52;;;;-47
2021/10/29 19:41:19;;;;;;;4.41;2.63;;;;;;;20.84;58.48;99949.25;;;;-48
2021/10/29 19:44:19;;;;;;;2.79;2.29;;;;;;;20.83;58.50;99947.94;;;;-50
2021/10/29 19:47:18;;;;;;;3.85;2.20;;;;;;;20.82;58.49;99947.47;;;;-58
2021/10/29 19:50:19;;;;;;;4.52;2.45;;;;;;;20.81;58.53;99949.09;;;;-59
2021/10/29 19:53:19;;;;;;;2.53;2.27;;;;;;;20.80;58.53;99954.16;;;;-57
2021/10/29 19:56:20;;;;;;;3.31;2.11;;;;;;;20.79;58.52;99960.11;;;;-57
2021/10/29 19:59:19;;;;;;;3.55;2.29;;;;;;;20.79;58.51;99962.94;;;;-52
2021/10/29 20:02:19;;;;;;;2.40;2.20;;;;;;;20.78;58.50;99966.78;;;;-53